Time;durP1;ratioP1;P1;durP2;ratioP2;P2;SDS_P1;SDS_P2;PMS_P1;PMS_P2;Temp;Humidity;BMP_temperature;BMP_pressure;BME280_temperature;BME280_humidity;BME280_pressure;Samples;Min_cycle;Max_cycle;Signal;HPM_P1;HPM_P2
2023/12/05 00:00:05;;;;;;;15.65;13.63;;;;;;;1.47;84.99;96836.44;5112947;27;20208;-72
2023/12/05 00:02:31;;;;;;;15.05;13.15;;;;;;;1.27;85.76;96836.03;5127238;27;20642;-72
2023/12/05 00:04:58;;;;;;;15.40;13.80;;;;;;;1.27;86.06;96836.88;5118634;27;20590;-72
2023/12/05 00:07:25;;;;;;;15.68;13.93;;;;;;;1.41;85.83;96837.13;5129972;27;20199;-71
2023/12/05 00:09:51;;;;;;;15.30;13.70;;;;;;;1.38;85.55;96832.97;5120573;27;20199;-71
2023/12/05 00:12:18;;;;;;;15.25;13.45;;;;;;;1.47;85.49;96831.94;5112763;27;20227;-71
2023/12/05 00:14:46;;;;;;;15.10;13.35;;;;;;;1.48;85.64;96833.59;5120740;27;20205;-71
2023/12/05 00:17:12;;;;;;;14.52;13.05;;;;;;;1.42;86.14;96828.97;5114871;27;20543;-71
2023/12/05 00:19:39;;;;;;;16.25;14.48;;;;;;;1.45;86.21;96827.78;5108243;27;20211;-71
2023/12/05 00:22:05;;;;;;;17.23;14.27;;;;;;;1.52;86.15;96823.41;5112137;27;20231;-71
2023/12/05 00:24:31;;;;;;;16.45;14.68;;;;;;;1.58;86.10;96830.72;5114344;27;20205;-71
2023/12/05 00:26:58;;;;;;;14.73;13.13;;;;;;;1.51;86.38;96824.41;5114572;27;20671;-71
2023/12/05 00:29:24;;;;;;;16.35;14.65;;;;;;;1.54;86.87;96826.72;5127726;27;20683;-71
2023/12/05 00:31:52;;;;;;;14.73;13.23;;;;;;;1.33;87.46;96825.50;5117043;27;20220;-71
2023/12/05 00:34:19;;;;;;;16.75;13.50;;;;;;;1.38;87.68;96822.31;5124283;27;20198;-71
2023/12/05 00:36:45;;;;;;;14.63;13.13;;;;;;;1.40;87.63;96819.47;5117327;27;20195;-71
2023/12/05 00:39:12;;;;;;;15.95;13.63;;;;;;;1.64;87.28;96821.97;5122297;27;20191;-71
2023/12/05 00:41:38;;;;;;;15.63;13.95;;;;;;;1.52;87.19;96828.75;5112721;27;20204;-71
2023/12/05 00:44:05;;;;;;;14.18;12.73;;;;;;;1.51;87.67;96827.09;5114970;27;20215;-71
2023/12/05 00:46:31;;;;;;;17.30;13.95;;;;;;;1.55;87.64;96817.72;5125069;27;20202;-71
2023/12/05 00:48:59;;;;;;;15.15;13.55;;;;;;;1.51;87.92;96825.25;5117043;27;20315;-71
2023/12/05 00:51:25;;;;;;;13.88;12.48;;;;;;;1.51;88.00;96825.25;5120656;27;20206;-71
2023/12/05 00:53:52;;;;;;;13.10;11.80;;;;;;;1.54;87.92;96818.75;5127188;27;20203;-71
2023/12/05 00:56:20;;;;;;;13.70;12.30;;;;;;;1.56;88.19;96824.72;5123527;27;20195;-71
2023/12/05 00:58:46;;;;;;;12.48;11.18;;;;;;;1.63;87.82;96821.16;5122773;27;20226;-71
2023/12/05 01:01:13;;;;;;;13.43;11.25;;;;;;;1.68;87.86;96825.97;5113974;27;20195;-71
2023/12/05 01:03:39;;;;;;;12.93;11.23;;;;;;;1.73;87.80;96836.94;5122473;27;20219;-71
2023/12/05 01:06:08;;;;;;;11.85;10.60;;;;;;;1.82;87.75;96835.06;5111536;27;20219;-71
2023/12/05 01:08:34;;;;;;;11.30;9.50;;;;;;;1.83;88.28;96842.03;5114950;27;20215;-71
2023/12/05 01:11:01;;;;;;;12.20;11.00;;;;;;;2.02;87.60;96833.56;5117336;27;20202;-71
2023/12/05 01:13:27;;;;;;;10.63;9.40;;;;;;;1.99;87.01;96842.75;5125429;27;20225;-72
2023/12/05 01:15:53;;;;;;;9.98;8.88;;;;;;;2.08;87.37;96838.19;5123784;27;20309;-71
2023/12/05 01:18:20;;;;;;;10.95;9.73;;;;;;;2.13;87.14;96838.47;5112931;27;20199;-71
2023/12/05 01:20:46;;;;;;;11.43;9.10;;;;;;;1.98;87.46;96841.09;5116718;27;20204;-71
2023/12/05 01:23:14;;;;;;;9.82;8.82;;;;;;;2.14;87.53;96839.31;5121937;27;20220;-71
2023/12/05 01:25:40;;;;;;;9.60;8.60;;;;;;;2.05;88.02;96838.53;5116536;27;20247;-71
2023/12/05 01:28:07;;;;;;;9.88;8.65;;;;;;;2.09;88.02;96847.84;5127160;27;20227;-72
2023/12/05 01:30:33;;;;;;;11.07;9.25;;;;;;;2.13;88.23;96851.00;5125644;27;20208;-71
2023/12/05 01:33:00;;;;;;;9.73;8.82;;;;;;;2.12;88.43;96852.00;5115209;27;20252;-71
2023/12/05 01:35:27;;;;;;;9.25;8.13;;;;;;;2.11;89.02;96850.34;5109049;27;20206;-71
2023/12/05 01:37:53;;;;;;;8.95;7.97;;;;;;;2.20;88.83;96846.59;5110289;27;20200;-71
2023/12/05 01:40:21;;;;;;;8.95;8.07;;;;;;;2.26;88.85;96846.72;5117345;27;20201;-72
2023/12/05 01:42:48;;;;;;;9.20;7.85;;;;;;;2.26;88.53;96844.06;5122968;27;20255;-71
2023/12/05 01:45:14;;;;;;;9.60;8.00;;;;;;;2.37;88.25;96837.44;5130285;27;20212;-71
2023/12/05 01:47:41;;;;;;;8.20;7.13;;;;;;;2.40;88.42;96831.72;5128515;27;20202;-71
2023/12/05 01:50:10;;;;;;;8.23;7.40;;;;;;;2.37;88.51;96845.44;5127385;27;20205;-72
2023/12/05 01:52:36;;;;;;;7.68;6.88;;;;;;;2.42;88.37;96836.91;5127153;27;20314;-72
2023/12/05 01:55:03;;;;;;;8.27;7.47;;;;;;;2.57;88.39;96843.94;5115971;27;20202;-72
2023/12/05 01:57:32;;;;;;;7.40;6.70;;;;;;;2.62;88.03;96844.19;5115412;27;20207;-71
2023/12/05 01:59:58;;;;;;;7.13;6.43;;;;;;;2.55;88.16;96845.97;5116966;27;20204;-72
2023/12/05 02:02:25;;;;;;;6.53;5.85;;;;;;;2.59;88.33;96844.59;5108376;27;20308;-72
2023/12/05 02:04:51;;;;;;;6.40;5.57;;;;;;;2.51;88.67;96843.84;5108971;27;20208;-72
2023/12/05 02:07:18;;;;;;;6.25;5.75;;;;;;;2.66;88.56;96842.00;5110745;27;20219;-72
2023/12/05 02:09:45;;;;;;;5.85;5.20;;;;;;;2.60;88.59;96840.88;5121242;27;20241;-71
2023/12/05 02:12:11;;;;;;;6.05;5.55;;;;;;;2.69;88.59;96838.97;5117057;27;20221;-71
2023/12/05 02:14:39;;;;;;;5.88;5.38;;;;;;;2.63;88.55;96840.50;5113416;27;20607;-71
2023/12/05 02:17:11;;;;;;;6.03;5.43;;;;;;;2.77;88.45;96846.06;5117876;27;20204;-72
2023/12/05 02:19:54;;;;;;;6.90;5.53;;;;;;;2.64;88.27;96831.50;5125068;27;20669;-72
2023/12/05 02:22:45;;;;;;;5.35;4.85;;;;;;;2.56;89.18;96839.59;5119977;27;20225;-71
2023/12/05 02:25:18;;;;;;;6.40;5.90;;;;;;;2.52;89.30;96837.47;5119256;27;20196;-72
2023/12/05 02:27:46;;;;;;;6.05;5.32;;;;;;;2.55;89.12;96835.28;5124261;27;20201;-72
2023/12/05 02:30:14;;;;;;;6.13;5.53;;;;;;;2.69;88.78;96834.44;5122648;27;20567;-72
2023/12/05 02:32:41;;;;;;;5.40;4.88;;;;;;;2.67;89.17;96839.13;5109208;27;20219;-72
2023/12/05 02:35:10;;;;;;;5.68;5.18;;;;;;;2.75;88.66;96842.75;5110163;27;20294;-72
2023/12/05 02:37:41;;;;;;;5.90;5.40;;;;;;;2.69;88.67;96836.28;5117744;27;20193;-72
2023/12/05 02:40:13;;;;;;;5.40;4.90;;;;;;;2.65;89.02;96833.16;5109729;27;20655;-72
2023/12/05 02:42:41;;;;;;;5.82;5.32;;;;;;;2.74;88.62;96841.91;5108500;28;20579;-72
2023/12/05 02:45:19;;;;;;;6.13;5.53;;;;;;;2.60;89.04;96851.56;5123332;27;20686;-72
2023/12/05 02:47:47;;;;;;;6.85;5.35;;;;;;;2.56;89.24;96844.94;5109940;27;20192;-74
2023/12/05 02:50:14;;;;;;;6.03;5.43;;;;;;;2.60;89.05;96846.22;5123717;27;20676;-72
2023/12/05 02:52:40;;;;;;;5.63;5.10;;;;;;;2.58;88.97;96842.09;5110520;27;20223;-72
2023/12/05 02:55:07;;;;;;;6.30;5.70;;;;;;;2.50;89.33;96851.00;5121218;27;20205;-72
2023/12/05 02:57:34;;;;;;;6.00;5.40;;;;;;;2.43;90.07;96844.72;5116830;27;20563;-71
2023/12/05 03:00:00;;;;;;;5.57;5.07;;;;;;;2.46;90.26;96854.22;5110475;27;20204;-71
2023/12/05 03:02:28;;;;;;;5.47;4.97;;;;;;;2.52;89.89;96848.16;5111607;27;20220;-72
2023/12/05 03:04:55;;;;;;;6.43;5.55;;;;;;;2.52;89.56;96854.31;5118001;27;20235;-72
2023/12/05 03:07:21;;;;;;;5.15;4.75;;;;;;;2.48;89.93;96858.38;5107384;28;20205;-72
2023/12/05 03:09:47;;;;;;;5.63;5.13;;;;;;;2.50;90.14;96861.69;5110092;28;20255;-72
2023/12/05 03:12:14;;;;;;;5.40;4.95;;;;;;;2.51;89.87;96868.69;5103861;28;20215;-72
2023/12/05 03:14:40;;;;;;;5.90;5.40;;;;;;;2.55;89.80;96858.47;5107105;28;20811;-72
2023/12/05 03:17:07;;;;;;;5.35;4.82;;;;;;;2.49;89.96;96859.19;5106869;28;20667;-72
2023/12/05 03:19:35;;;;;;;6.05;5.55;;;;;;;2.47;90.27;96862.06;5121326;28;20205;-71
2023/12/05 03:22:01;;;;;;;6.07;5.45;;;;;;;2.51;90.10;96863.34;5108173;28;20228;-72
2023/12/05 03:24:27;;;;;;;7.35;5.65;;;;;;;2.57;89.89;96861.81;5112261;28;20211;-72
2023/12/05 03:26:54;;;;;;;5.63;5.20;;;;;;;2.58;89.64;96864.28;5110736;28;20219;-72
2023/12/05 03:29:21;;;;;;;5.97;5.47;;;;;;;2.62;89.71;96870.91;5120932;28;20225;-72
2023/12/05 03:31:47;;;;;;;5.95;5.35;;;;;;;2.70;89.29;96867.34;5112388;28;20229;-72
2023/12/05 03:34:14;;;;;;;6.38;5.78;;;;;;;2.71;89.15;96866.31;5109047;28;20196;-71
2023/12/05 03:36:42;;;;;;;5.95;5.30;;;;;;;2.58;89.34;96869.63;5105203;28;20215;-72
2023/12/05 03:39:08;;;;;;;7.53;5.07;;;;;;;2.79;89.08;96868.09;5107604;28;20202;-72
2023/12/05 03:41:35;;;;;;;6.30;5.70;;;;;;;2.69;88.64;96863.00;5119939;28;20258;-72
2023/12/05 03:44:01;;;;;;;5.40;4.90;;;;;;;2.68;89.02;96861.34;5126430;28;20206;-71
2023/12/05 03:46:28;;;;;;;5.10;4.55;;;;;;;2.80;88.70;96861.72;5114344;28;20217;-72
2023/12/05 03:48:54;;;;;;;5.32;4.90;;;;;;;2.72;88.95;96872.50;5119955;28;20216;-72
2023/12/05 03:51:21;;;;;;;5.80;5.20;;;;;;;2.77;88.54;96868.28;5112228;28;20225;-72
2023/12/05 03:53:48;;;;;;;5.95;5.45;;;;;;;2.77;88.79;96868.28;5123397;28;20201;-72
2023/12/05 03:56:15;;;;;;;5.20;4.70;;;;;;;2.81;88.71;96874.09;5122413;27;20190;-72
2023/12/05 03:58:42;;;;;;;6.25;5.60;;;;;;;2.70;88.56;96862.00;5127663;27;20204;-72
2023/12/05 04:01:08;;;;;;;5.75;5.15;;;;;;;2.66;88.96;96858.84;5111826;28;20199;-72
2023/12/05 04:03:35;;;;;;;5.65;5.15;;;;;;;2.60;89.22;96859.56;5118861;28;20203;-72
2023/12/05 04:06:01;;;;;;;6.22;5.72;;;;;;;2.45;89.80;96866.75;5116885;28;20248;-71
2023/12/05 04:08:28;;;;;;;5.50;5.00;;;;;;;2.45;89.82;96861.41;5113982;28;20197;-72
2023/12/05 04:10:56;;;;;;;6.30;5.65;;;;;;;2.43;90.43;96866.09;5110415;28;20199;-72
2023/12/05 04:13:22;;;;;;;6.28;5.60;;;;;;;2.38;90.51;96863.13;5120080;27;20207;-72
2023/12/05 04:15:49;;;;;;;5.90;5.40;;;;;;;2.30;90.88;96865.84;5127046;27;20201;-72
2023/12/05 04:18:15;;;;;;;6.60;6.00;;;;;;;2.32;91.44;96871.84;5119283;27;20211;-72
2023/12/05 04:20:42;;;;;;;6.32;5.72;;;;;;;2.28;91.25;96875.88;5114682;27;20216;-72
2023/12/05 04:23:08;;;;;;;7.25;6.57;;;;;;;2.21;91.61;96869.63;5128452;27;20225;-72
2023/12/05 04:25:35;;;;;;;6.70;6.10;;;;;;;2.21;91.73;96877.63;5117172;27;20219;-72
2023/12/05 04:28:02;;;;;;;6.70;6.10;;;;;;;2.22;91.56;96879.28;5123875;27;20203;-72
2023/12/05 04:30:29;;;;;;;6.90;6.30;;;;;;;2.09;91.51;96849.69;5120725;27;20219;-72
2023/12/05 04:32:55;;;;;;;7.03;6.30;;;;;;;2.26;92.01;96886.75;5113942;27;20225;-72
2023/12/05 04:35:22;;;;;;;8.48;6.43;;;;;;;2.41;91.22;96886.78;5110671;27;20215;-72
2023/12/05 04:37:48;;;;;;;7.38;6.57;;;;;;;2.30;91.36;96882.69;5109514;27;20207;-72
2023/12/05 04:40:15;;;;;;;7.10;6.40;;;;;;;2.15;92.52;96889.00;5118845;27;20681;-72
2023/12/05 04:42:41;;;;;;;7.72;6.05;;;;;;;2.33;92.09;96886.84;5116379;27;20583;-73
2023/12/05 04:45:09;;;;;;;7.38;6.60;;;;;;;2.28;91.73;96875.88;5111936;27;20205;-72
2023/12/05 04:47:36;;;;;;;8.95;6.35;;;;;;;2.19;91.85;96875.13;5127943;27;20206;-76
2023/12/05 04:50:03;;;;;;;6.78;6.07;;;;;;;2.23;91.85;96878.28;5112004;27;20316;-72
2023/12/05 04:52:30;;;;;;;6.15;5.65;;;;;;;2.23;92.15;96878.28;5112866;27;20225;-72
2023/12/05 04:54:56;;;;;;;7.50;6.40;;;;;;;2.33;92.50;96873.50;5125518;27;20252;-72
2023/12/05 04:57:23;;;;;;;6.70;6.10;;;;;;;2.48;91.98;96862.88;5132587;27;20491;-72
2023/12/05 04:59:49;;;;;;;5.97;5.47;;;;;;;2.48;91.82;96871.72;5118726;27;20198;-72
2023/12/05 05:02:17;;;;;;;6.10;5.50;;;;;;;2.43;91.72;96871.41;5118634;27;20216;-72
2023/12/05 05:04:43;;;;;;;6.32;5.72;;;;;;;2.48;91.95;96858.38;5127282;27;20193;-72
2023/12/05 05:07:11;;;;;;;6.22;5.40;;;;;;;2.59;91.69;96860.63;5126809;27;21947;-72
2023/12/05 05:09:40;;;;;;;5.47;4.97;;;;;;;2.59;91.71;96863.28;5118832;27;20222;-72
2023/12/05 05:12:08;;;;;;;5.82;5.30;;;;;;;2.61;91.16;96868.41;5118078;27;20219;-72
2023/12/05 05:14:35;;;;;;;5.50;4.95;;;;;;;2.66;90.97;96864.19;5112271;27;20217;-72
2023/12/05 05:17:01;;;;;;;5.43;4.90;;;;;;;2.73;90.65;96866.13;5111467;28;20196;-74
2023/12/05 05:19:29;;;;;;;4.75;4.30;;;;;;;2.62;90.79;96843.38;5104912;27;20205;-71
2023/12/05 05:21:56;;;;;;;6.38;5.63;;;;;;;2.68;90.60;96864.00;5111824;27;20220;-73
2023/12/05 05:24:22;;;;;;;4.90;4.50;;;;;;;2.73;91.07;96864.31;5114384;27;20193;-73
2023/12/05 05:26:49;;;;;;;5.13;4.72;;;;;;;2.57;90.74;96865.31;5110332;27;20196;-72
2023/12/05 05:29:15;;;;;;;4.82;4.40;;;;;;;2.66;90.61;96866.88;5116672;27;20207;-72
2023/12/05 05:31:42;;;;;;;4.93;4.03;;;;;;;2.87;90.45;96865.34;5124526;27;20684;-72
2023/12/05 05:34:08;;;;;;;4.53;4.13;;;;;;;2.92;89.68;96860.28;5113288;27;20675;-74
2023/12/05 05:36:36;;;;;;;3.83;3.42;;;;;;;3.01;89.26;96861.84;5106525;27;20524;-73
2023/12/05 05:39:02;;;;;;;4.40;3.22;;;;;;;3.23;89.08;96868.13;5113164;27;20213;-73
2023/12/05 05:41:30;;;;;;;4.18;2.20;;;;;;;3.58;87.99;96866.47;5113695;27;20210;-73
2023/12/05 05:43:55;;;;;;;2.30;1.75;;;;;;;3.98;86.37;96868.59;5118161;27;20193;-73
2023/12/05 05:46:22;;;;;;;2.03;1.50;;;;;;;4.31;85.02;96873.44;5116714;27;20209;-75
2023/12/05 05:48:48;;;;;;;2.10;1.70;;;;;;;4.46;83.99;96855.47;5108750;27;20203;-76
2023/12/05 05:51:16;;;;;;;2.03;1.88;;;;;;;4.56;83.34;96861.31;5118396;27;20340;-75
2023/12/05 05:53:44;;;;;;;2.42;1.65;;;;;;;4.70;82.85;96871.13;5111179;27;20206;-75
2023/12/05 05:56:12;;;;;;;1.75;1.65;;;;;;;4.74;82.47;96874.25;5118250;27;20202;-76
2023/12/05 05:58:39;;;;;;;3.20;1.50;;;;;;;4.82;81.97;96870.59;5112650;27;20601;-76
2023/12/05 06:01:05;;;;;;;1.50;1.40;;;;;;;4.82;81.94;96873.28;5120404;27;20218;-76
2023/12/05 06:03:32;;;;;;;3.08;1.80;;;;;;;4.87;81.39;96876.22;5116070;27;20291;-77
2023/12/05 06:05:59;;;;;;;3.67;1.40;;;;;;;4.82;81.60;96875.97;5120643;27;20259;-72
2023/12/05 06:08:25;;;;;;;1.45;1.30;;;;;;;4.76;81.55;96876.72;5110620;27;20215;-72
2023/12/05 06:10:53;;;;;;;2.58;1.50;;;;;;;4.67;81.92;96890.25;5108838;27;20719;-72
2023/12/05 06:13:20;;;;;;;2.33;1.30;;;;;;;4.64;81.80;96877.25;5114403;27;20230;-72
2023/12/05 06:15:46;;;;;;;1.95;1.60;;;;;;;4.69;81.50;96866.78;5117339;27;20207;-72
2023/12/05 06:18:15;;;;;;;2.10;1.85;;;;;;;4.36;82.24;96881.75;5128422;27;20210;-71
2023/12/05 06:20:42;;;;;;;3.33;2.08;;;;;;;4.12;83.01;96884.81;5123208;27;20657;-72
2023/12/05 06:23:08;;;;;;;3.25;2.08;;;;;;;4.09;83.01;96890.53;5124157;27;20197;-71
2023/12/05 06:25:35;;;;;;;2.50;2.30;;;;;;;3.81;83.36;96885.09;5114494;27;20311;-72
2023/12/05 06:28:06;;;;;;;3.47;3.15;;;;;;;3.63;83.75;96888.16;5115419;27;20193;-72
2023/12/05 06:30:33;;;;;;;4.97;2.90;;;;;;;3.46;84.75;96892.06;5123202;27;20236;-72
2023/12/05 06:32:59;;;;;;;3.83;3.22;;;;;;;3.36;84.51;96889.66;5128508;27;20688;-72
2023/12/05 06:35:26;;;;;;;4.65;3.28;;;;;;;3.20;85.18;96895.22;5120388;27;20202;-72
2023/12/05 06:37:52;;;;;;;5.00;3.60;;;;;;;2.91;86.89;96898.69;5114064;27;20208;-70
2023/12/05 06:40:19;;;;;;;4.30;3.72;;;;;;;2.83;87.12;96896.09;5117492;27;20220;-72
2023/12/05 06:42:46;;;;;;;5.03;3.55;;;;;;;2.90;87.10;96905.06;5111401;27;20201;-72
2023/12/05 06:45:14;;;;;;;4.88;4.07;;;;;;;2.78;87.78;96904.66;5112953;27;20780;-72
2023/12/05 06:47:41;;;;;;;4.10;3.70;;;;;;;2.68;88.18;96896.06;5121089;27;20215;-72
2023/12/05 06:50:10;;;;;;;4.22;3.80;;;;;;;2.69;88.40;96895.06;5108742;27;20229;-72
2023/12/05 06:52:37;;;;;;;4.53;3.85;;;;;;;2.58;88.64;96888.31;5118030;27;20212;-77
2023/12/05 06:55:05;;;;;;;5.75;3.47;;;;;;;2.67;88.83;96903.25;5102408;27;20287;-78
2023/12/05 06:57:31;;;;;;;4.80;4.05;;;;;;;2.50;88.94;96872.38;5107874;27;20275;-80
2023/12/05 06:59:58;;;;;;;4.00;3.60;;;;;;;2.81;88.70;96906.97;5108422;27;20657;-78
2023/12/05 07:02:26;;;;;;;4.63;3.67;;;;;;;2.87;89.01;96906.25;5110908;27;20220;-80
2023/12/05 07:04:52;;;;;;;4.07;2.92;;;;;;;2.85;88.71;96915.44;5116809;27;20682;-80
2023/12/05 07:07:19;;;;;;;4.75;3.10;;;;;;;2.93;88.55;96910.00;5116104;27;20713;-77
2023/12/05 07:09:45;;;;;;;4.28;2.92;;;;;;;3.00;88.08;96917.13;5110049;27;20682;-77
2023/12/05 07:12:12;;;;;;;5.55;3.25;;;;;;;2.95;88.05;96918.69;5109679;27;20217;-78
2023/12/05 07:14:38;;;;;;;5.07;3.45;;;;;;;3.02;87.78;96925.78;5113113;27;20339;-78
2023/12/05 07:17:05;;;;;;;4.00;3.40;;;;;;;3.11;87.25;96937.22;5116696;27;20198;-78
2023/12/05 07:19:33;;;;;;;3.08;2.75;;;;;;;3.10;87.26;96932.91;5118888;27;20213;-78
2023/12/05 07:22:00;;;;;;;3.75;3.10;;;;;;;3.18;87.38;96946.19;5122071;27;20315;-78
2023/12/05 07:24:26;;;;;;;4.18;3.28;;;;;;;3.14;86.86;96944.88;5108894;27;20322;-78
2023/12/05 07:26:52;;;;;;;5.30;3.33;;;;;;;3.25;86.42;96952.44;5109117;27;20613;-78
2023/12/05 07:29:19;;;;;;;3.65;3.30;;;;;;;3.10;86.55;96948.94;5117360;27;20669;-78
2023/12/05 07:31:45;;;;;;;3.78;2.80;;;;;;;3.06;86.55;96958.31;5103159;27;20683;-77
2023/12/05 07:34:12;;;;;;;4.13;3.70;;;;;;;2.90;87.14;96982.53;5109726;27;20295;-78
2023/12/05 07:36:41;;;;;;;4.28;3.25;;;;;;;2.93;87.18;96969.63;5112885;27;20207;-78
2023/12/05 07:39:09;;;;;;;7.55;3.38;;;;;;;2.95;86.92;96967.59;5113795;27;20214;-78
2023/12/05 07:41:37;;;;;;;3.85;3.50;;;;;;;3.02;86.73;96967.72;5108672;27;20324;-78
2023/12/05 07:44:03;;;;;;;5.45;3.78;;;;;;;3.02;86.85;96981.06;5114234;27;20206;-77
2023/12/05 07:46:30;;;;;;;3.80;3.15;;;;;;;3.19;86.44;96973.75;5113561;27;20222;-78
2023/12/05 07:48:56;;;;;;;3.40;3.00;;;;;;;3.33;85.99;96970.25;5117831;27;20626;-77
2023/12/05 07:51:23;;;;;;;4.68;3.70;;;;;;;3.49;85.58;96974.59;5118903;27;20694;-78
2023/12/05 07:53:51;;;;;;;4.75;2.33;;;;;;;3.71;84.79;96984.38;5118984;27;20208;-78
2023/12/05 07:56:18;;;;;;;3.45;2.63;;;;;;;3.87;83.96;96984.19;5115022;27;20259;-78
2023/12/05 07:58:44;;;;;;;3.33;2.65;;;;;;;3.98;83.25;96981.00;5117864;27;20285;-78
2023/12/05 08:01:11;;;;;;;4.18;3.42;;;;;;;4.09;82.69;96985.06;5106118;27;20241;-78
2023/12/05 08:03:37;;;;;;;3.85;2.50;;;;;;;4.21;82.03;96988.94;5113884;27;20199;-78
2023/12/05 08:06:04;;;;;;;4.75;2.97;;;;;;;4.24;81.65;96979.66;5109736;27;20203;-78
2023/12/05 08:08:33;;;;;;;2.88;2.35;;;;;;;4.24;81.26;96972.47;5112035;27;20201;-78
2023/12/05 08:11:01;;;;;;;4.15;2.55;;;;;;;4.36;81.29;96994.22;5114905;27;20230;-77
2023/12/05 08:13:28;;;;;;;2.60;2.40;;;;;;;4.30;81.05;96979.75;5125679;27;20555;-78
2023/12/05 08:15:55;;;;;;;5.15;2.75;;;;;;;4.31;81.04;96978.72;5115728;27;20290;-78
2023/12/05 08:18:21;;;;;;;3.50;2.28;;;;;;;4.42;80.80;96990.81;5113320;27;20210;-78
2023/12/05 08:20:48;;;;;;;3.15;2.05;;;;;;;4.51;80.34;96987.00;5129143;27;20224;-78
2023/12/05 08:23:14;;;;;;;2.90;2.38;;;;;;;4.78;79.68;96992.59;5122117;27;20282;-78
2023/12/05 08:25:41;;;;;;;3.67;2.20;;;;;;;4.94;78.82;96989.66;5113657;27;20195;-79
2023/12/05 08:28:08;;;;;;;3.45;1.95;;;;;;;4.95;78.36;96989.47;5107042;27;20645;-79
2023/12/05 08:30:35;;;;;;;3.80;2.00;;;;;;;5.04;78.14;96982.94;5111720;27;20238;-78
2023/12/05 08:33:02;;;;;;;2.92;2.20;;;;;;;5.29;77.38;96975.28;5114888;27;20195;-78
2023/12/05 08:35:28;;;;;;;2.97;2.50;;;;;;;5.52;75.87;96985.78;5110600;27;20235;-78
2023/12/05 08:37:55;;;;;;;2.88;2.58;;;;;;;5.72;74.96;96976.00;5109549;27;20203;-78
2023/12/05 08:40:22;;;;;;;4.97;2.58;;;;;;;5.85;74.95;96991.34;5112344;27;20215;-79
2023/12/05 08:42:49;;;;;;;4.05;2.85;;;;;;;5.91;74.20;96984.38;5109196;27;22071;-78
2023/12/05 08:45:18;;;;;;;3.38;2.50;;;;;;;5.97;73.95;97000.53;5119106;27;20571;-79
2023/12/05 08:47:45;;;;;;;3.40;2.67;;;;;;;6.03;73.56;96999.75;5115187;27;20194;-78
2023/12/05 08:50:11;;;;;;;2.65;2.45;;;;;;;6.67;71.47;96993.97;5129364;27;20211;-78
2023/12/05 08:52:38;;;;;;;2.40;2.08;;;;;;;7.45;68.71;97001.50;5119043;27;20200;-78
2023/12/05 08:55:06;;;;;;;2.80;2.53;;;;;;;7.81;66.81;97003.69;5123454;27;20228;-78
2023/12/05 08:57:32;;;;;;;4.45;1.92;;;;;;;8.47;64.98;96998.94;5122582;27;20206;-79
2023/12/05 08:59:59;;;;;;;4.13;2.70;;;;;;;8.88;63.20;97008.50;5109731;27;20199;-78
2023/12/05 09:02:27;;;;;;;2.40;2.10;;;;;;;8.91;61.87;97016.16;5113731;27;20198;-78
2023/12/05 09:04:54;;;;;;;3.38;2.35;;;;;;;9.29;60.75;97013.41;5108277;27;20202;-77
2023/12/05 09:07:20;;;;;;;2.60;2.15;;;;;;;9.56;59.76;97003.22;5110019;27;20210;-78
2023/12/05 09:09:47;;;;;;;6.15;2.30;;;;;;;9.33;59.76;97012.75;5120746;27;20944;-74
2023/12/05 09:12:13;;;;;;;2.80;2.25;;;;;;;9.54;59.99;97005.31;5111758;27;20222;-72
2023/12/05 09:14:40;;;;;;;2.17;1.95;;;;;;;8.67;61.49;97010.50;5110246;27;20190;-72
2023/12/05 09:17:09;;;;;;;1.90;1.80;;;;;;;8.87;62.53;97014.94;5124403;27;20194;-72
2023/12/05 09:19:36;;;;;;;3.30;2.10;;;;;;;9.22;61.02;97018.03;5120546;27;20194;-73
2023/12/05 09:22:03;;;;;;;2.00;1.80;;;;;;;9.56;60.28;97014.03;5128332;27;20227;-72
2023/12/05 09:24:29;;;;;;;2.35;1.67;;;;;;;10.03;58.89;97013.38;5124838;27;20217;-72
2023/12/05 09:26:56;;;;;;;3.00;2.05;;;;;;;10.63;56.61;97016.22;5124455;27;20218;-72
2023/12/05 09:29:22;;;;;;;2.50;1.90;;;;;;;10.37;56.60;97011.16;5110055;27;20210;-73
2023/12/05 09:31:49;;;;;;;2.78;1.70;;;;;;;10.36;57.04;97023.84;5123242;27;20228;-73
2023/12/05 09:34:15;;;;;;;2.15;1.15;;;;;;;9.82;57.46;97024.56;5130061;27;20225;-73
2023/12/05 09:36:43;;;;;;;2.00;1.27;;;;;;;9.58;57.70;97022.72;5120804;27;20214;-74
2023/12/05 09:39:10;;;;;;;2.20;1.30;;;;;;;9.62;58.26;97013.13;5129634;27;20206;-72
2023/12/05 09:41:39;;;;;;;3.33;1.27;;;;;;;9.50;58.29;97014.91;5111782;27;20301;-73
2023/12/05 09:44:05;;;;;;;3.15;1.23;;;;;;;9.42;57.68;97008.72;5109043;27;20199;-73
2023/12/05 09:46:34;;;;;;;1.73;1.00;;;;;;;8.95;59.23;97029.00;5109476;28;20206;-74
2023/12/05 09:49:01;;;;;;;1.92;1.20;;;;;;;8.38;60.80;97021.81;5112686;27;20198;-73
2023/12/05 09:51:28;;;;;;;1.95;1.20;;;;;;;8.64;59.90;97020.88;5121712;27;20226;-73
2023/12/05 09:53:56;;;;;;;1.50;1.10;;;;;;;9.06;59.63;97030.19;5117942;27;20206;-73
2023/12/05 09:56:23;;;;;;;2.20;0.90;;;;;;;9.35;58.04;97028.75;5111610;27;20213;-81
2023/12/05 09:58:49;;;;;;;1.50;0.80;;;;;;;8.88;58.50;96951.84;5106247;27;20232;-71
2023/12/05 10:01:17;;;;;;;1.33;0.90;;;;;;;8.84;58.84;97034.25;5106706;27;20237;-73
2023/12/05 10:03:44;;;;;;;2.20;1.25;;;;;;;8.87;59.67;97015.75;5117540;27;20201;-74
2023/12/05 10:06:11;;;;;;;1.30;0.98;;;;;;;9.14;58.79;97023.69;5123959;27;20220;-73
2023/12/05 10:08:38;;;;;;;0.90;0.90;;;;;;;9.24;58.09;97016.75;5118523;27;20231;-74
2023/12/05 10:11:07;;;;;;;1.92;0.88;;;;;;;8.69;59.17;97016.50;5105445;27;20752;-74
2023/12/05 10:13:34;;;;;;;1.88;1.23;;;;;;;8.56;60.51;97008.47;5107492;27;20283;-74
2023/12/05 10:16:01;;;;;;;1.52;1.10;;;;;;;8.35;60.94;97006.06;5104706;27;20755;-73
2023/12/05 10:18:28;;;;;;;1.95;1.10;;;;;;;7.87;62.81;97025.25;5117184;27;20299;-74
2023/12/05 10:20:55;;;;;;;1.15;1.00;;;;;;;7.84;63.27;97017.56;5121184;27;20245;-74
2023/12/05 10:23:22;;;;;;;1.80;1.10;;;;;;;8.08;62.39;97008.00;5113900;27;20201;-74
2023/12/05 10:25:48;;;;;;;1.27;1.10;;;;;;;8.23;61.50;97013.94;5110365;27;20752;-74
2023/12/05 10:28:16;;;;;;;2.28;1.15;;;;;;;8.19;61.76;97017.28;5108002;27;20553;-74
2023/12/05 10:30:42;;;;;;;2.30;1.10;;;;;;;8.36;61.71;97010.44;5116347;27;20236;-74
2023/12/05 10:33:11;;;;;;;2.20;1.10;;;;;;;8.20;61.96;97010.84;5120289;27;20201;-74
2023/12/05 10:35:38;;;;;;;2.45;1.30;;;;;;;7.91;62.67;97015.69;5110963;27;20198;-74
2023/12/05 10:38:08;;;;;;;1.75;1.52;;;;;;;8.04;62.93;97013.00;5121570;27;20198;-74
2023/12/05 10:40:49;;;;;;;1.75;1.00;;;;;;;8.64;60.80;97016.31;5113987;27;20222;-77
2023/12/05 10:43:17;;;;;;;1.52;0.90;;;;;;;8.95;59.74;97006.59;5114356;27;20224;-74
2023/12/05 10:45:44;;;;;;;1.23;1.13;;;;;;;9.36;58.38;96988.03;5110315;27;20203;-75
2023/12/05 10:48:11;;;;;;;1.35;1.10;;;;;;;9.47;58.10;96993.72;5114355;27;20217;-75
2023/12/05 10:50:38;;;;;;;1.48;1.13;;;;;;;9.57;58.24;96988.66;5117583;27;20221;-74
2023/12/05 10:53:04;;;;;;;2.55;1.35;;;;;;;9.81;57.17;96979.69;5122138;27;20295;-74
2023/12/05 10:55:31;;;;;;;1.30;1.00;;;;;;;9.47;57.77;96988.31;5116764;27;20210;-75
2023/12/05 10:57:58;;;;;;;1.40;1.00;;;;;;;10.14;55.81;96989.31;5124663;27;20192;-75
2023/12/05 11:00:26;;;;;;;1.42;1.13;;;;;;;10.03;56.01;96983.63;5113008;27;20811;-76
2023/12/05 11:02:54;;;;;;;1.75;1.10;;;;;;;9.92;56.52;96992.47;5122192;27;20215;-75
2023/12/05 11:05:21;;;;;;;1.55;1.23;;;;;;;10.29;55.44;96989.81;5119975;28;20247;-75
2023/12/05 11:07:48;;;;;;;2.05;1.10;;;;;;;10.44;55.02;96984.81;5110288;27;20203;-75
2023/12/05 11:10:16;;;;;;;2.75;0.93;;;;;;;10.16;55.17;96984.50;5112779;27;20604;-75
2023/12/05 11:12:46;;;;;;;1.45;1.25;;;;;;;10.01;55.85;96980.31;5109129;27;20231;-75
2023/12/05 11:15:14;;;;;;;1.40;0.70;;;;;;;9.86;56.67;96982.56;5107549;27;20197;-75
2023/12/05 11:17:45;;;;;;;1.10;1.00;;;;;;;9.65;56.52;96988.38;5111462;27;20195;-75
2023/12/05 11:20:21;;;;;;;1.83;0.95;;;;;;;9.37;57.21;96976.16;5107733;27;20225;-75
2023/12/05 11:22:58;;;;;;;0.80;0.80;;;;;;;9.39;57.50;96987.59;5123693;27;20216;-75
2023/12/05 11:25:38;;;;;;;1.08;0.98;;;;;;;9.63;57.10;96972.41;5123086;27;20208;-75
2023/12/05 11:28:18;;;;;;;1.30;1.05;;;;;;;10.07;55.91;96984.81;5124724;27;20198;-75
2023/12/05 11:31:06;;;;;;;1.60;1.20;;;;;;;10.26;55.39;96968.63;5117073;27;20705;-75
2023/12/05 11:33:47;;;;;;;2.28;1.05;;;;;;;9.68;56.16;96977.97;5108989;27;20202;-76
2023/12/05 11:36:24;;;;;;;1.27;1.10;;;;;;;9.32;57.34;96984.09;5109275;27;20194;-75
2023/12/05 11:38:51;;;;;;;0.93;0.70;;;;;;;9.57;57.05;96975.16;5108132;27;20835;-76